Time;durP1;ratioP1;P1;durP2;ratioP2;P2;SDS_P1;SDS_P2;PMS_P1;PMS_P2;Temp;Humidity;BMP_temperature;BMP_pressure;BME280_temperature;BME280_humidity;BME280_pressure;Samples;Min_cycle;Max_cycle;Signal;HPM_P1;HPM_P2
2023/12/14 00:01:50;;;;;;;10.75;7.10;;;4.50;99.90;;;;;;4916534;29;20564;-64
2023/12/14 00:04:17;;;;;;;7.93;4.85;;;4.50;99.90;;;;;;4916134;29;20051;-64
2023/12/14 00:06:43;;;;;;;13.25;7.40;;;4.50;99.90;;;;;;4916607;29;20485;-64
2023/12/14 00:09:10;;;;;;;17.60;8.48;;;4.50;99.90;;;;;;4908556;29;20486;-64
2023/12/14 00:11:40;;;;;;;17.23;10.30;;;4.50;99.90;;;;;;4916531;29;20091;-64
2023/12/14 00:14:07;;;;;;;13.18;6.55;;;4.50;99.90;;;;;;4922087;29;20047;-64
2023/12/14 00:16:33;;;;;;;8.02;5.05;;;4.50;99.90;;;;;;4912922;29;20059;-64
2023/12/14 00:19:00;;;;;;;8.10;4.57;;;4.50;99.90;;;;;;4916015;29;20054;-64
2023/12/14 00:21:27;;;;;;;10.57;5.07;;;4.50;99.90;;;;;;4916190;29;20043;-64
2023/12/14 00:23:54;;;;;;;5.10;3.10;;;4.40;99.90;;;;;;4915720;29;20044;-64
2023/12/14 00:26:21;;;;;;;3.53;2.15;;;4.40;99.90;;;;;;4912827;29;20180;-64
2023/12/14 00:28:47;;;;;;;6.45;3.30;;;4.50;99.90;;;;;;4917811;29;20040;-64
2023/12/14 00:31:14;;;;;;;4.57;2.78;;;4.40;99.90;;;;;;4915945;29;20086;-64
2023/12/14 00:33:41;;;;;;;5.10;3.28;;;4.40;99.90;;;;;;4915742;29;20474;-64
2023/12/14 00:36:08;;;;;;;6.05;3.50;;;4.30;99.90;;;;;;4914262;29;20048;-64
2023/12/14 00:38:35;;;;;;;7.63;3.30;;;4.40;99.90;;;;;;4912259;29;21071;-63
2023/12/14 00:41:02;;;;;;;5.85;3.55;;;4.40;99.90;;;;;;4905768;29;20048;-64
2023/12/14 00:43:29;;;;;;;10.73;5.07;;;4.40;99.90;;;;;;4910649;29;20120;-64
2023/12/14 00:45:56;;;;;;;7.53;4.90;;;4.40;99.90;;;;;;4909643;29;20123;-64
2023/12/14 00:48:22;;;;;;;10.88;5.53;;;4.40;99.90;;;;;;4907329;29;20040;-64
2023/12/14 00:50:49;;;;;;;6.43;3.80;;;4.40;99.90;;;;;;4911799;29;20040;-64
2023/12/14 00:53:16;;;;;;;6.28;3.50;;;4.40;99.90;;;;;;4901961;29;20438;-64
2023/12/14 00:55:44;;;;;;;5.45;3.55;;;4.40;99.90;;;;;;4903260;29;20092;-64
2023/12/14 00:58:14;;;;;;;6.43;3.00;;;4.40;99.90;;;;;;4905856;29;20049;-64
2023/12/14 01:00:42;;;;;;;4.45;2.22;;;4.50;99.90;;;;;;4901471;29;20041;-64
2023/12/14 01:03:09;;;;;;;;;;;4.50;99.90;;;;;;4906087;29;20051;-64
2023/12/14 01:05:35;;;;;;;4.80;2.33;;;4.40;99.90;;;;;;4901651;29;19927;-64
2023/12/14 01:08:02;;;;;;;7.75;3.45;;;4.30;99.90;;;;;;4922787;29;20067;-64
2023/12/14 01:10:29;;;;;;;8.40;3.45;;;4.30;99.90;;;;;;4915292;29;20076;-64
2023/12/14 01:12:56;;;;;;;6.80;3.78;;;4.30;99.90;;;;;;4890363;29;20545;-64
2023/12/14 01:15:23;;;;;;;4.28;2.28;;;4.30;99.90;;;;;;4915010;29;20046;-62
2023/12/14 01:17:49;;;;;;;3.83;2.38;;;4.30;99.90;;;;;;4909607;29;20056;-64
2023/12/14 01:20:19;;;;;;;6.13;3.35;;;4.40;99.90;;;;;;4915491;29;20062;-64
2023/12/14 01:22:46;;;;;;;5.72;2.72;;;4.30;99.90;;;;;;4915215;29;20420;-64
2023/12/14 01:25:12;;;;;;;4.88;3.08;;;4.40;99.90;;;;;;4914934;29;20115;-64
2023/12/14 01:27:39;;;;;;;4.57;2.53;;;4.30;99.90;;;;;;4914439;29;20041;-64
2023/12/14 01:30:07;;;;;;;3.88;2.63;;;4.30;99.90;;;;;;4909135;29;20520;-64
2023/12/14 01:32:34;;;;;;;4.72;2.75;;;4.30;99.90;;;;;;4915421;29;20055;-63
2023/12/14 01:35:01;;;;;;;6.00;3.00;;;4.30;99.90;;;;;;4914647;29;20123;-64
2023/12/14 01:37:28;;;;;;;6.00;2.92;;;4.30;99.90;;;;;;4904450;29;20044;-64
2023/12/14 01:39:55;;;;;;;11.23;5.50;;;4.30;99.90;;;;;;4896418;29;20143;-63
2023/12/14 01:42:22;;;;;;;7.82;5.07;;;4.30;99.90;;;;;;4907437;29;20052;-64
2023/12/14 01:44:49;;;;;;;5.47;3.00;;;4.30;99.90;;;;;;4906030;29;20046;-64
2023/12/14 01:47:15;;;;;;;5.90;3.13;;;4.30;99.90;;;;;;4915001;29;20055;-64
2023/12/14 01:49:42;;;;;;;4.05;2.20;;;4.30;99.90;;;;;;4913805;29;20036;-64
2023/12/14 01:52:09;;;;;;;5.10;2.08;;;4.30;99.90;;;;;;4913833;29;20055;-62
2023/12/14 01:54:36;;;;;;;4.45;2.38;;;4.20;99.90;;;;;;4914812;29;20044;-64
2023/12/14 01:57:03;;;;;;;4.97;1.48;;;4.20;99.90;;;;;;4913234;29;20059;-64
2023/12/14 01:59:30;;;;;;;2.95;1.98;;;4.10;99.90;;;;;;4915184;29;20047;-64
2023/12/14 02:01:57;;;;;;;3.55;2.33;;;4.10;99.90;;;;;;4907348;29;20047;-64
2023/12/14 02:04:25;;;;;;;3.80;2.50;;;4.10;99.90;;;;;;4906620;29;20421;-64
2023/12/14 02:06:52;;;;;;;5.13;2.47;;;4.20;99.90;;;;;;4914179;29;20044;-64
2023/12/14 02:09:19;;;;;;;3.97;2.50;;;4.30;99.90;;;;;;4914949;29;20394;-64
2023/12/14 02:11:45;;;;;;;4.80;3.10;;;4.30;99.90;;;;;;4910614;29;20123;-64
2023/12/14 02:14:12;;;;;;;4.88;2.60;;;4.40;99.90;;;;;;4907059;29;20045;-64
2023/12/14 02:16:39;;;;;;;4.70;3.17;;;4.40;99.90;;;;;;4915168;29;20048;-64
2023/12/14 02:19:06;;;;;;;6.18;3.53;;;4.30;99.90;;;;;;4914217;29;20044;-64
2023/12/14 02:21:33;;;;;;;4.88;3.22;;;4.30;99.90;;;;;;4915196;29;20051;-63
2023/12/14 02:24:00;;;;;;;5.35;2.75;;;4.30;99.90;;;;;;4913432;29;20123;-63
2023/12/14 02:26:27;;;;;;;4.65;2.58;;;4.30;99.90;;;;;;4887616;29;20044;-63
2023/12/14 02:28:54;;;;;;;4.13;1.90;;;4.30;99.90;;;;;;4913896;29;20051;-64
2023/12/14 02:31:20;;;;;;;5.30;2.50;;;4.30;99.90;;;;;;4916855;29;20079;-64
2023/12/14 02:33:47;;;;;;;5.47;2.38;;;4.20;99.90;;;;;;4912586;29;20044;-64
2023/12/14 02:36:14;;;;;;;2.65;1.50;;;4.20;99.90;;;;;;4917703;29;20393;-64
2023/12/14 02:38:41;;;;;;;4.32;2.45;;;4.30;99.90;;;;;;4917921;29;20044;-64
2023/12/14 02:41:08;;;;;;;6.15;3.28;;;4.30;99.90;;;;;;4908469;29;20383;-64
2023/12/14 02:43:35;;;;;;;6.60;3.75;;;4.30;99.90;;;;;;4900388;29;20134;-63
2023/12/14 02:46:02;;;;;;;7.05;4.35;;;4.30;99.90;;;;;;4903981;29;20402;-63
2023/12/14 02:48:29;;;;;;;7.07;3.25;;;4.30;99.90;;;;;;4910485;29;20044;-64
2023/12/14 02:50:57;;;;;;;8.65;4.03;;;4.30;99.90;;;;;;4903011;29;20120;-64
2023/12/14 02:53:23;;;;;;;7.53;3.58;;;4.30;99.90;;;;;;4906766;29;20048;-64
2023/12/14 02:55:50;;;;;;;6.93;3.20;;;4.30;99.90;;;;;;4906108;29;20055;-63
2023/12/14 02:58:18;;;;;;;6.15;2.50;;;4.30;99.90;;;;;;4916366;29;20048;-64
2023/12/14 03:00:45;;;;;;;4.43;2.58;;;4.30;99.90;;;;;;4917401;29;20135;-64
2023/12/14 03:03:12;;;;;;;5.97;3.05;;;4.30;99.90;;;;;;4909930;29;20068;-64
2023/12/14 03:05:39;;;;;;;5.63;2.75;;;4.30;99.90;;;;;;4915886;29;20048;-64
2023/12/14 03:08:05;;;;;;;5.35;2.78;;;4.30;99.90;;;;;;4905948;29;20076;-63
2023/12/14 03:10:32;;;;;;;5.43;3.15;;;4.30;99.90;;;;;;4915653;29;20095;-64
2023/12/14 03:12:59;;;;;;;17.48;5.22;;;4.30;99.90;;;;;;4917446;29;20445;-64
2023/12/14 03:15:26;;;;;;;11.48;5.57;;;4.30;99.90;;;;;;4916867;29;20718;-64
2023/12/14 03:17:53;;;;;;;7.07;4.05;;;4.30;99.90;;;;;;4909242;29;20127;-64
2023/12/14 03:20:21;;;;;;;5.53;3.40;;;4.30;99.90;;;;;;4915477;29;20147;-64
2023/12/14 03:22:47;;;;;;;4.97;2.70;;;4.30;99.90;;;;;;4916402;29;20048;-64
2023/12/14 03:25:15;;;;;;;4.75;3.10;;;4.30;99.90;;;;;;4916894;29;20052;-63
2023/12/14 03:27:41;;;;;;;3.53;2.55;;;4.30;99.90;;;;;;4916344;29;20549;-62
2023/12/14 03:30:09;;;;;;;4.88;2.50;;;4.30;99.90;;;;;;4912455;29;20497;-64
2023/12/14 03:32:37;;;;;;;3.90;2.35;;;4.30;99.90;;;;;;4917549;29;20107;-64
2023/12/14 03:35:05;;;;;;;5.47;2.53;;;4.30;99.90;;;;;;4913149;29;20052;-63
2023/12/14 03:37:32;;;;;;;6.97;3.25;;;4.20;99.90;;;;;;4920338;29;20059;-63
2023/12/14 03:39:58;;;;;;;8.40;4.60;;;4.20;99.90;;;;;;4915987;29;20122;-63
2023/12/14 03:42:25;;;;;;;19.42;10.30;;;4.20;99.90;;;;;;4911330;29;20049;-64
2023/12/14 03:44:52;;;;;;;24.40;11.90;;;4.20;99.90;;;;;;4907105;29;20044;-64
2023/12/14 03:47:19;;;;;;;28.02;11.63;;;4.30;99.90;;;;;;4913346;29;20048;-64
2023/12/14 03:49:46;;;;;;;10.90;5.90;;;4.30;99.90;;;;;;4916917;29;20052;-63
2023/12/14 03:52:13;;;;;;;6.93;3.75;;;4.30;99.90;;;;;;4916635;29;20660;-63
2023/12/14 03:54:40;;;;;;;9.02;3.85;;;4.40;99.90;;;;;;4916538;29;20149;-64
2023/12/14 03:57:06;;;;;;;4.40;2.15;;;4.30;99.90;;;;;;4913239;29;20070;-64
2023/12/14 03:59:33;;;;;;;5.93;2.85;;;4.20;99.90;;;;;;4899577;29;20130;-64
2023/12/14 04:02:00;;;;;;;7.53;2.33;;;4.20;99.90;;;;;;4916673;29;20040;-64
2023/12/14 04:04:27;;;;;;;4.70;2.40;;;4.10;99.90;;;;;;4916222;29;20143;-63
2023/12/14 04:06:54;;;;;;;4.28;2.28;;;4.00;99.90;;;;;;4914762;29;20037;-64
2023/12/14 04:09:20;;;;;;;6.30;2.63;;;4.10;99.90;;;;;;4909440;29;20044;-64
2023/12/14 04:11:47;;;;;;;5.13;2.58;;;4.10;99.90;;;;;;4916517;29;20043;-64
2023/12/14 04:14:14;;;;;;;9.25;4.20;;;4.10;99.90;;;;;;4914754;29;20070;-64
2023/12/14 04:16:41;;;;;;;10.20;4.50;;;4.10;99.90;;;;;;4916369;29;20103;-64
2023/12/14 04:19:10;;;;;;;10.32;5.22;;;4.10;99.90;;;;;;4907346;29;20075;-64
2023/12/14 04:21:37;;;;;;;9.30;5.80;;;4.00;99.90;;;;;;4916263;29;20048;-63
2023/12/14 04:24:04;;;;;;;8.18;4.70;;;4.00;99.90;;;;;;4915529;29;20099;-64
2023/12/14 04:26:31;;;;;;;10.25;4.88;;;4.10;99.90;;;;;;4911582;29;20048;-64
2023/12/14 04:28:58;;;;;;;7.60;4.18;;;4.00;99.90;;;;;;4916432;29;20044;-64
2023/12/14 04:31:25;;;;;;;7.30;4.20;;;4.00;99.90;;;;;;4907183;29;20546;-64
2023/12/14 04:33:52;;;;;;;11.18;4.95;;;4.10;99.90;;;;;;4910912;29;20172;-64
2023/12/14 04:36:18;;;;;;;15.68;8.73;;;4.10;99.90;;;;;;4911921;29;20503;-64
2023/12/14 04:38:46;;;;;;;12.00;7.25;;;4.20;99.90;;;;;;4914068;29;20048;-64
2023/12/14 04:41:13;;;;;;;12.38;5.55;;;4.30;99.90;;;;;;4915065;29;20132;-64
2023/12/14 04:43:40;;;;;;;8.00;4.05;;;4.30;99.90;;;;;;4908084;29;20103;-64
2023/12/14 04:46:07;;;;;;;6.82;2.53;;;4.40;99.90;;;;;;4898030;29;20044;-64
2023/12/14 04:48:34;;;;;;;6.35;2.30;;;4.30;99.90;;;;;;4907096;29;20036;-63
2023/12/14 04:51:01;;;;;;;2.38;1.48;;;4.30;99.90;;;;;;4902194;29;20052;-64
2023/12/14 04:53:28;;;;;;;2.58;1.48;;;4.30;99.90;;;;;;4907755;29;20064;-64
2023/12/14 04:55:55;;;;;;;3.92;1.48;;;4.10;99.90;;;;;;4910514;29;20055;-64
2023/12/14 04:58:21;;;;;;;2.75;1.75;;;4.10;99.90;;;;;;4910709;29;20074;-64
2023/12/14 05:00:48;;;;;;;3.00;1.95;;;4.10;99.90;;;;;;4909102;29;20041;-64
2023/12/14 05:03:15;;;;;;;4.95;3.03;;;4.10;99.90;;;;;;4912434;29;20044;-64
2023/12/14 05:05:42;;;;;;;4.53;2.90;;;4.10;99.90;;;;;;4909659;29;20055;-64
2023/12/14 05:08:09;;;;;;;5.38;3.30;;;4.10;99.90;;;;;;4913523;29;20079;-64
2023/12/14 05:10:36;;;;;;;5.65;3.17;;;4.10;99.90;;;;;;4911061;29;20087;-63
2023/12/14 05:13:03;;;;;;;5.63;3.28;;;4.20;99.90;;;;;;4910256;29;20052;-64
2023/12/14 05:15:30;;;;;;;6.90;3.38;;;4.20;99.90;;;;;;4896970;29;20044;-64
2023/12/14 05:17:57;;;;;;;5.40;3.38;;;4.20;99.90;;;;;;4912611;29;20405;-64
2023/12/14 05:20:24;;;;;;;8.93;4.03;;;4.30;99.90;;;;;;4914543;29;20096;-64
2023/12/14 05:22:51;;;;;;;9.73;4.25;;;4.30;99.90;;;;;;4908115;29;20043;-64
2023/12/14 05:25:18;;;;;;;5.10;3.17;;;4.30;99.90;;;;;;4912556;29;20405;-64
2023/12/14 05:27:45;;;;;;;12.63;7.18;;;4.20;99.90;;;;;;4907702;29;20104;-64
2023/12/14 05:30:12;;;;;;;6.28;3.22;;;4.20;99.90;;;;;;4914897;29;20075;-64
2023/12/14 05:32:39;;;;;;;6.00;3.05;;;4.20;99.90;;;;;;4898561;29;20072;-64
2023/12/14 05:35:07;;;;;;;4.75;2.67;;;4.20;99.90;;;;;;4904923;29;20124;-64
2023/12/14 05:37:34;;;;;;;;;;;4.20;99.90;;;;;;4900676;29;20044;-64
2023/12/14 05:40:02;;;;;;;5.20;2.60;;;4.20;99.90;;;;;;4912617;29;19923;-64
2023/12/14 05:42:29;;;;;;;5.38;2.90;;;4.30;99.90;;;;;;4904522;29;20485;-64
2023/12/14 05:44:55;;;;;;;6.63;3.35;;;4.20;99.90;;;;;;4903584;29;20052;-64
2023/12/14 05:47:22;;;;;;;5.53;3.13;;;4.10;99.90;;;;;;4898852;29;20044;-64
2023/12/14 05:49:50;;;;;;;4.88;2.72;;;4.10;99.90;;;;;;4903284;29;20049;-64
2023/12/14 05:52:16;;;;;;;5.50;2.90;;;4.10;99.90;;;;;;4897375;29;20051;-63
2023/12/14 05:54:43;;;;;;;21.85;8.60;;;4.10;99.90;;;;;;4903482;29;20128;-64
2023/12/14 05:57:12;;;;;;;22.77;10.35;;;4.10;99.90;;;;;;4890561;29;20131;-64
2023/12/14 05:59:39;;;;;;;13.70;7.03;;;4.10;99.90;;;;;;4897964;29;20119;-64
2023/12/14 06:02:06;;;;;;;15.85;6.70;;;4.10;99.90;;;;;;4900120;29;20409;-64
2023/12/14 06:04:33;;;;;;;;;;;4.10;99.90;;;;;;4903541;29;20049;-64
2023/12/14 06:07:00;;;;;;;19.80;8.70;;;4.00;99.90;;;;;;4905530;29;20384;-64
2023/12/14 06:09:33;;;;;;;16.50;7.03;;;4.10;99.90;;;;;;4904791;29;20520;-64
2023/12/14 06:12:04;;;;;;;15.02;6.38;;;4.10;99.90;;;;;;4904421;29;20131;-64
2023/12/14 06:14:31;;;;;;;12.38;5.95;;;4.10;99.90;;;;;;4898128;29;20037;-64
2023/12/14 06:16:58;;;;;;;13.10;6.47;;;4.10;99.90;;;;;;4901776;29;20500;-64
2023/12/14 06:19:25;;;;;;;;;;;4.10;99.90;;;;;;4882948;29;20493;-64
2023/12/14 06:21:52;;;;;;;9.13;4.20;;;4.10;99.90;;;;;;4899560;29;19923;-64
2023/12/14 06:24:20;;;;;;;9.32;4.43;;;4.10;99.90;;;;;;4888495;29;20036;-63
2023/12/14 06:26:47;;;;;;;12.88;6.07;;;4.10;99.90;;;;;;4915035;29;20462;-64
2023/12/14 06:29:14;;;;;;;12.10;6.78;;;4.10;99.90;;;;;;4908143;29;20052;-64
2023/12/14 06:31:41;;;;;;;15.70;8.13;;;4.10;99.90;;;;;;4889983;29;20566;-64
2023/12/14 06:34:08;;;;;;;16.30;8.60;;;4.10;99.90;;;;;;4897126;29;20092;-64
2023/12/14 06:36:35;;;;;;;16.92;9.25;;;4.00;99.90;;;;;;4908795;29;20059;-64
2023/12/14 06:39:05;;;;;;;15.68;7.55;;;4.10;99.90;;;;;;4902030;29;20128;-64
2023/12/14 06:41:32;;;;;;;11.90;5.43;;;4.00;99.90;;;;;;4898539;29;20036;-64
2023/12/14 06:43:58;;;;;;;12.95;6.13;;;4.00;99.90;;;;;;4917802;29;20227;-64
2023/12/14 06:46:25;;;;;;;16.48;5.90;;;4.00;99.90;;;;;;4890278;29;20051;-65
2023/12/14 06:48:53;;;;;;;10.10;4.70;;;4.00;99.90;;;;;;4908537;29;20044;-64
2023/12/14 06:51:21;;;;;;;11.10;4.13;;;3.90;99.90;;;;;;4906026;29;20044;-64
2023/12/14 06:53:48;;;;;;;;;;;4.00;99.90;;;;;;4906095;29;20410;-64
2023/12/14 06:56:15;;;;;;;4.60;2.22;;;4.00;99.90;;;;;;4903807;29;19923;-64
2023/12/14 06:58:43;;;;;;;6.60;2.33;;;4.10;99.90;;;;;;4897530;29;20048;-64
2023/12/14 07:01:14;;;;;;;14.38;5.55;;;4.00;99.90;;;;;;4898428;29;20036;-64
2023/12/14 07:03:44;;;;;;;17.58;7.60;;;4.10;99.90;;;;;;4905295;29;20052;-65
2023/12/14 07:06:15;;;;;;;17.30;7.55;;;4.10;99.90;;;;;;4898694;29;20140;-64
2023/12/14 07:08:42;;;;;;;15.73;6.50;;;4.10;99.90;;;;;;4898337;29;20394;-64
2023/12/14 07:11:09;;;;;;;5.57;3.03;;;4.10;99.90;;;;;;4907217;29;20055;-64
2023/12/14 07:13:37;;;;;;;4.90;2.42;;;3.90;99.90;;;;;;4905365;29;20048;-64
2023/12/14 07:16:05;;;;;;;;;;;3.90;99.90;;;;;;4904815;29;20386;-64
2023/12/14 07:18:32;;;;;;;7.43;3.25;;;4.00;99.90;;;;;;4904637;29;20383;-64
2023/12/14 07:20:59;;;;;;;8.32;3.83;;;3.90;99.90;;;;;;4905226;29;20051;-64
2023/12/14 07:23:26;;;;;;;6.20;2.63;;;3.90;99.90;;;;;;4903782;29;20052;-64
2023/12/14 07:25:53;;;;;;;3.88;1.42;;;3.90;99.90;;;;;;4916027;29;20059;-64
2023/12/14 07:28:20;;;;;;;3.13;1.17;;;3.90;99.90;;;;;;4915977;29;20040;-64
2023/12/14 07:30:47;;;;;;;2.72;0.90;;;4.00;99.90;;;;;;4917021;29;20442;-64
2023/12/14 07:33:15;;;;;;;4.15;1.23;;;4.00;99.90;;;;;;4913241;29;20108;-64
2023/12/14 07:35:42;;;;;;;;;;;4.00;99.90;;;;;;4910648;29;20086;-64
2023/12/14 07:38:12;;;;;;;1.23;0.60;;;4.00;99.90;;;;;;4916853;29;19923;-64
2023/12/14 07:40:39;;;;;;;2.60;1.05;;;3.90;99.90;;;;;;4911480;29;20040;-64
2023/12/14 07:43:06;;;;;;;;;;;3.90;99.90;;;;;;4917301;29;20048;-65
2023/12/14 07:45:33;;;;;;;3.80;1.60;;;3.90;99.90;;;;;;4916201;29;19923;-64
2023/12/14 07:47:59;;;;;;;2.42;1.50;;;3.90;99.90;;;;;;4915682;29;20044;-65
2023/12/14 07:50:26;;;;;;;5.35;2.22;;;3.80;99.90;;;;;;4907899;29;20131;-64
2023/12/14 07:52:53;;;;;;;5.43;3.30;;;3.80;99.90;;;;;;4916832;29;20040;-64
2023/12/14 07:55:20;;;;;;;4.45;2.17;;;3.90;99.90;;;;;;4916337;29;20414;-63
2023/12/14 07:57:47;;;;;;;3.10;2.10;;;3.90;99.90;;;;;;4913651;29;20052;-64
2023/12/14 08:00:15;;;;;;;10.40;2.67;;;4.00;99.90;;;;;;4916761;29;20078;-64
2023/12/14 08:02:42;;;;;;;4.80;2.55;;;4.00;99.90;;;;;;4916136;29;20044;-64
2023/12/14 08:05:09;;;;;;;7.30;3.03;;;4.10;99.90;;;;;;4916487;29;20044;-64
2023/12/14 08:07:36;;;;;;;5.65;3.63;;;4.10;99.90;;;;;;4923335;29;20036;-65
2023/12/14 08:10:03;;;;;;;5.05;2.28;;;4.20;99.90;;;;;;4916929;29;20048;-65
2023/12/14 08:12:30;;;;;;;3.25;1.90;;;4.20;99.90;;;;;;4914848;29;20043;-64
2023/12/14 08:14:57;;;;;;;4.25;2.30;;;4.20;99.90;;;;;;4916004;29;20082;-64
2023/12/14 08:17:23;;;;;;;2.53;1.48;;;4.30;99.90;;;;;;4916197;29;20040;-65
2023/12/14 08:19:50;;;;;;;2.70;1.00;;;4.30;99.90;;;;;;4916238;29;20052;-64
2023/12/14 08:22:17;;;;;;;1.75;1.00;;;4.40;99.90;;;;;;4913115;29;20096;-64
2023/12/14 08:24:44;;;;;;;1.55;0.90;;;4.40;99.90;;;;;;4912949;29;20482;-64
2023/12/14 08:27:11;;;;;;;1.58;1.20;;;4.40;99.90;;;;;;4916317;29;20482;-64
2023/12/14 08:29:38;;;;;;;1.15;0.80;;;4.40;99.90;;;;;;4908010;29;20466;-64
2023/12/14 08:32:05;;;;;;;1.77;1.05;;;4.50;99.90;;;;;;4908287;29;20810;-64
2023/12/14 08:34:32;;;;;;;2.08;1.30;;;4.40;99.90;;;;;;4905262;29;20048;-64
2023/12/14 08:37:00;;;;;;;3.53;2.35;;;4.40;99.90;;;;;;4908007;29;20054;-64
2023/12/14 08:39:27;;;;;;;5.68;2.60;;;4.50;99.90;;;;;;4901353;29;20048;-65
2023/12/14 08:41:54;;;;;;;7.97;3.05;;;4.50;99.90;;;;;;4904806;29;20056;-64
2023/12/14 08:44:21;;;;;;;5.50;2.90;;;4.50;99.90;;;;;;4903931;29;20048;-64
2023/12/14 08:46:49;;;;;;;7.97;3.70;;;4.50;99.90;;;;;;4904484;29;20044;-64
2023/12/14 08:49:16;;;;;;;6.72;3.33;;;4.60;99.90;;;;;;4909954;29;20119;-64
2023/12/14 08:51:43;;;;;;;7.95;4.22;;;4.50;99.90;;;;;;4905966;29;20052;-65
2023/12/14 08:54:10;;;;;;;5.72;3.30;;;4.60;99.90;;;;;;4915070;29;20054;-64
2023/12/14 08:56:36;;;;;;;6.20;3.58;;;4.60;99.90;;;;;;4911161;29;20493;-65
2023/12/14 08:59:03;;;;;;;5.15;3.20;;;4.70;99.90;;;;;;4908013;29;20048;-64
2023/12/14 09:01:30;;;;;;;;;;;4.70;99.90;;;;;;4911273;29;20052;-65
2023/12/14 09:04:00;;;;;;;5.07;3.67;;;4.70;99.90;;;;;;4915052;29;19923;-65
2023/12/14 09:06:27;;;;;;;7.75;4.28;;;4.70;99.90;;;;;;4914900;29;20449;-64
2023/12/14 09:08:54;;;;;;;5.50;3.42;;;4.70;99.90;;;;;;4915428;29;20075;-64
2023/12/14 09:11:20;;;;;;;6.40;2.75;;;4.70;99.90;;;;;;4907055;29;20059;-64
2023/12/14 09:13:47;;;;;;;4.80;2.90;;;4.70;99.90;;;;;;4914993;29;20063;-64
2023/12/14 09:16:14;;;;;;;7.80;3.80;;;4.70;99.90;;;;;;4915388;29;20123;-64
2023/12/14 09:18:42;;;;;;;7.20;4.10;;;4.80;99.90;;;;;;4913598;29;20072;-64
2023/12/14 09:21:09;;;;;;;9.82;4.70;;;4.90;99.90;;;;;;4907883;29;20044;-64
2023/12/14 09:23:36;;;;;;;9.43;4.22;;;5.00;99.90;;;;;;4914874;29;20127;-64
2023/12/14 09:26:03;;;;;;;7.40;3.40;;;5.10;99.90;;;;;;4913933;29;20043;-64
2023/12/14 09:28:29;;;;;;;8.10;3.65;;;5.10;99.90;;;;;;4914932;29;20103;-65
2023/12/14 09:30:56;;;;;;;8.98;4.60;;;5.10;99.90;;;;;;4912143;29;20052;-64
2023/12/14 09:33:23;;;;;;;6.55;4.35;;;5.10;99.90;;;;;;4897682;29;20087;-64
2023/12/14 09:35:50;;;;;;;9.70;4.25;;;5.20;99.90;;;;;;4914093;29;20390;-64
2023/12/14 09:38:19;;;;;;;5.75;3.55;;;5.30;99.90;;;;;;4915109;29;20077;-65
2023/12/14 09:40:46;;;;;;;7.82;4.03;;;5.30;99.90;;;;;;4912737;29;20111;-64
2023/12/14 09:43:13;;;;;;;4.93;3.00;;;5.50;99.90;;;;;;4907627;29;20422;-64
2023/12/14 09:45:44;;;;;;;4.68;2.80;;;5.50;99.90;;;;;;4914546;29;20040;-64
2023/12/14 09:48:12;;;;;;;4.13;2.65;;;5.60;99.90;;;;;;4911176;29;20040;-64
2023/12/14 09:50:40;;;;;;;5.65;2.88;;;5.60;99.90;;;;;;4915191;29;20123;-65
2023/12/14 09:53:08;;;;;;;9.60;3.40;;;5.70;99.90;;;;;;4913590;29;20071;-64
2023/12/14 09:55:35;;;;;;;7.45;2.78;;;5.90;99.90;;;;;;4914419;29;20087;-64
2023/12/14 09:58:02;;;;;;;8.05;3.30;;;6.00;99.90;;;;;;4909934;29;20109;-65
2023/12/14 10:00:40;;;;;;;6.05;3.20;;;6.20;99.90;;;;;;4910611;29;20413;-65
2023/12/14 10:03:28;;;;;;;7.28;5.00;;;6.20;99.90;;;;;;4914210;29;20413;-64
2023/12/14 10:05:56;;;;;;;8.65;5.25;;;6.30;99.90;;;;;;4914073;29;20442;-65
2023/12/14 10:08:25;;;;;;;8.07;4.45;;;6.30;99.90;;;;;;4907032;29;20426;-65
2023/12/14 10:10:54;;;;;;;10.60;5.00;;;6.30;99.90;;;;;;4914657;29;20483;-65
2023/12/14 10:13:36;;;;;;;9.73;5.22;;;6.40;99.90;;;;;;4913517;29;20067;-65
2023/12/14 10:16:03;;;;;;;10.68;5.32;;;6.40;99.90;;;;;;4914627;29;20051;-64
2023/12/14 10:18:34;;;;;;;7.07;4.57;;;6.40;99.90;;;;;;4913070;29;20126;-64
2023/12/14 10:21:01;;;;;;;9.10;4.70;;;6.40;99.90;;;;;;4909588;29;20104;-64
2023/12/14 10:23:28;;;;;;;7.13;4.03;;;6.40;99.90;;;;;;4914418;29;20105;-64
2023/12/14 10:25:55;;;;;;;8.70;4.82;;;6.30;99.90;;;;;;4913586;29;20122;-65
2023/12/14 10:28:22;;;;;;;9.75;5.40;;;6.20;99.90;;;;;;4914644;29;20048;-64
2023/12/14 10:30:49;;;;;;;;;;;6.10;99.90;;;;;;4907623;29;20040;-64
2023/12/14 10:33:16;;;;;;;10.90;4.70;;;6.10;99.90;;;;;;4914290;29;19923;-64
2023/12/14 10:35:45;;;;;;;;;;;6.20;99.90;;;;;;4914381;29;20054;-64
2023/12/14 10:38:15;;;;;;;10.73;5.25;;;6.20;99.90;;;;;;4906747;29;19923;-64
2023/12/14 10:40:43;;;;;;;11.65;6.00;;;6.20;99.90;;;;;;4906661;29;20458;-64
2023/12/14 10:43:12;;;;;;;10.80;6.53;;;6.10;99.90;;;;;;4913851;29;20044;-64
2023/12/14 10:45:43;;;;;;;7.63;4.88;;;6.10;99.90;;;;;;4913665;29;20044;-64
2023/12/14 10:48:13;;;;;;;11.45;5.05;;;6.20;99.90;;;;;;4914811;29;20087;-64
2023/12/14 10:50:42;;;;;;;7.20;4.90;;;6.20;99.90;;;;;;4909742;29;20055;-64
2023/12/14 10:53:09;;;;;;;24.52;11.50;;;6.30;99.90;;;;;;4911455;29;20048;-64
2023/12/14 10:55:37;;;;;;;;;;;6.20;99.90;;;;;;4917568;29;20127;-64
2023/12/14 10:58:04;;;;;;;17.10;8.77;;;6.30;99.90;;;;;;4917114;29;19994;-64
2023/12/14 11:00:32;;;;;;;13.50;6.43;;;6.30;99.90;;;;;;4917464;29;20086;-64
2023/12/14 11:02:59;;;;;;;;;;;6.30;99.90;;;;;;4910531;29;20405;-65
2023/12/14 11:05:30;;;;;;;9.35;5.63;;;6.40;99.90;;;;;;4916944;29;19974;-64
2023/12/14 11:08:12;;;;;;;6.80;4.50;;;6.60;99.90;;;;;;4914565;29;20422;-64
2023/12/14 11:11:10;;;;;;;13.13;5.70;;;6.70;99.90;;;;;;4899429;29;20060;-64
2023/12/14 11:13:38;;;;;;;6.32;3.63;;;6.80;99.90;;;;;;4911932;29;20048;-65
2023/12/14 11:16:05;;;;;;;13.85;9.00;;;6.80;99.90;;;;;;4916388;29;20071;-64
2023/12/14 11:18:32;;;;;;;11.60;9.07;;;6.80;99.90;;;;;;4915930;29;20050;-65
2023/12/14 11:21:00;;;;;;;8.50;4.75;;;6.90;99.90;;;;;;4908419;29;20554;-64
2023/12/14 11:23:31;;;;;;;5.95;3.83;;;7.00;99.90;;;;;;4916414;29;20048;-65
2023/12/14 11:26:03;;;;;;;6.03;3.78;;;6.80;99.90;;;;;;4915791;29;20115;-64
2023/12/14 11:28:31;;;;;;;8.48;4.25;;;6.70;99.90;;;;;;4917028;29;20401;-64
2023/12/14 11:30:59;;;;;;;10.77;5.30;;;6.70;99.90;;;;;;4900219;29;20074;-64
2023/12/14 11:33:28;;;;;;;9.02;3.88;;;6.70;99.90;;;;;;4908732;29;20036;-64
2023/12/14 11:35:56;;;;;;;6.88;3.88;;;6.60;99.90;;;;;;4908288;29;20054;-64
2023/12/14 11:38:24;;;;;;;8.82;4.65;;;6.50;99.90;;;;;;4904785;29;20048;-64
2023/12/14 11:40:51;;;;;;;8.48;3.47;;;6.50;99.90;;;;;;4905662;29;20072;-64
2023/12/14 11:43:23;;;;;;;6.53;4.40;;;6.40;99.90;;;;;;4905081;29;20100;-64
2023/12/14 11:45:50;;;;;;;7.68;4.22;;;6.50;99.90;;;;;;4897454;29;20123;-64
2023/12/14 11:48:17;;;;;;;7.22;4.25;;;6.60;99.90;;;;;;4896825;29;20545;-65
2023/12/14 11:50:44;;;;;;;7.18;4.10;;;6.70;99.90;;;;;;4913388;29;20406;-64
2023/12/14 11:53:12;;;;;;;8.25;4.47;;;6.70;99.90;;;;;;4906236;29;20123;-64
2023/12/14 11:55:41;;;;;;;9.02;4.05;;;6.70;99.90;;;;;;4908320;29;20044;-64
2023/12/14 11:58:11;;;;;;;8.93;4.47;;;6.80;99.90;;;;;;4906904;29;20116;-64
2023/12/14 12:00:39;;;;;;;8.23;4.03;;;6.90;99.90;;;;;;4916080;29;20137;-65
2023/12/14 12:03:17;;;;;;;7.03;3.92;;;7.00;99.90;;;;;;4915826;29;20528;-64
2023/12/14 12:05:45;;;;;;;8.90;4.30;;;7.10;99.90;;;;;;4910719;29;20045;-65
2023/12/14 12:08:14;;;;;;;7.75;4.10;;;7.10;99.90;;;;;;4906299;29;20565;-64
2023/12/14 12:10:42;;;;;;;9.70;4.05;;;7.10;99.90;;;;;;4915970;29;20044;-65
2023/12/14 12:13:27;;;;;;;9.00;4.55;;;7.00;99.90;;;;;;4915617;29;20052;-65
2023/12/14 12:15:54;;;;;;;7.10;5.00;;;6.90;99.90;;;;;;4913679;29;20515;-64
2023/12/14 12:18:20;;;;;;;9.48;4.85;;;6.90;99.90;;;;;;4915803;29;20512;-64
2023/12/14 12:20:47;;;;;;;8.10;4.10;;;6.80;99.90;;;;;;4915225;29;20055;-65
2023/12/14 12:23:16;;;;;;;7.30;4.25;;;6.60;99.90;;;;;;4915472;29;20043;-64
2023/12/14 12:25:43;;;;;;;8.35;4.63;;;6.60;99.90;;;;;;4906835;29;20040;-64
2023/12/14 12:28:09;;;;;;;9.77;4.63;;;6.60;99.90;;;;;;4907712;29;20101;-64
2023/12/14 12:30:36;;;;;;;11.45;5.07;;;6.50;99.90;;;;;;4914595;29;20047;-65
2023/12/14 12:33:07;;;;;;;7.22;4.28;;;6.30;99.90;;;;;;4897239;29;20044;-64
2023/12/14 12:35:34;;;;;;;6.43;4.72;;;6.20;99.90;;;;;;4896548;29;20406;-67
2023/12/14 12:38:01;;;;;;;7.72;4.78;;;6.10;99.90;;;;;;4904356;29;20040;-64
2023/12/14 12:40:30;;;;;;;10.07;4.97;;;6.10;99.90;;;;;;4903055;29;20068;-63
2023/12/14 12:42:57;;;;;;;10.27;4.45;;;6.00;99.90;;;;;;4896512;29;20154;-64
2023/12/14 12:45:27;;;;;;;9.80;5.45;;;6.00;99.90;;;;;;4896073;29;20059;-64
2023/12/14 12:47:55;;;;;;;10.93;5.35;;;6.00;99.90;;;;;;4896632;29;20045;-64
2023/12/14 12:50:22;;;;;;;8.70;5.65;;;6.00;99.90;;;;;;4905371;29;20040;-64
2023/12/14 12:52:49;;;;;;;10.07;5.20;;;6.00;99.90;;;;;;4903029;29;20476;-64
2023/12/14 12:55:16;;;;;;;8.82;5.40;;;6.20;99.90;;;;;;4896130;29;20056;-64
2023/12/14 12:57:43;;;;;;;8.35;5.68;;;6.20;99.90;;;;;;4909663;29;20135;-64
2023/12/14 13:00:11;;;;;;;10.18;5.28;;;6.30;99.90;;;;;;4899839;29;20040;-64